Impacts METAR Board INFO
IDs:

KLAX - Los Angeles Intl, CA, US

Updated at: 0421 UTC 15 Dec 2017
Potential Impact None Slight Moderate High
Time14/16Z 14/17Z 14/18Z 14/19Z 14/20Z 14/21Z 14/22Z 14/23Z 15/00Z 15/01Z 15/02Z 15/03Z 15/04Z
VIS10 10 10 10 10 10 10 10 10 9 10 10 10
CIG-- -- -- -- -- -- -- -- -- -- -- -- --
CoverFEWFEWFEWFEWFEWFEWSCTFEWFEWFEWFEWFEWFEW
FltCatVFRVFRVFRVFRVFRVFRVFRVFRVFRVFRVFRVFRVFR
WX--------------------------
WDir8000260270270240250250240270200130
WSpd6 3 3 7 7 9 5 6 8 6 6 3 7
WGst-- -- -- -- -- -- -- -- -- -- -- -- --
Raw hourly METARs
KLAX 141553Z 08006KT 10SM FEW250 12/02 A3002 RMK AO2 SLP163 T01220017
KLAX 141653Z VRB03KT 10SM FEW250 17/03 A3003 RMK AO2 SLP166 T01670028
KLAX 141753Z VRB03KT 10SM FEW250 18/03 A3004 RMK AO2 SLP170 T01830033 10183 20094 51014
KLAX 141853Z 26007KT 10SM FEW250 20/07 A3002 RMK AO2 SLP166 T02000072
KLAX 141953Z 27007KT 10SM FEW250 20/09 A3002 RMK AO2 SLP164 T02000089
KLAX 142053Z 27009KT 10SM FEW250 19/12 A3001 RMK AO2 SLP162 T01890122 56008
KLAX 142153Z 24005KT 10SM FEW090 SCT250 21/11 A3000 RMK AO2 SLP157 T02060106
KLAX 142253Z 25006KT 10SM FEW090 21/10 A3000 RMK AO2 SLP157 T02110100
KLAX 142353Z 25008KT 10SM FEW090 FEW250 19/11 A3000 RMK AO2 SLP158 T01940111 10222 20183 55004
KLAX 150053Z 24006KT 9SM FEW090 FEW200 17/13 A3001 RMK AO2 SLP161 T01670133
KLAX 150153Z 27006KT 10SM FEW090 FEW200 17/13 A3002 RMK AO2 SLP167 T01670133
KLAX 150253Z 20003KT 10SM FEW200 17/12 A3004 RMK AO2 SLP173 T01670122 53014
KLAX 150353Z 13007KT 10SM FEW200 17/11 A3005 RMK AO2 SLP176 T01670111